Airfield :
LOGIN :

Register | Disclaimer

   EN    FR    IT 

 










Legend :    VFR   Marginal VFR   IFR   Intensive IFR   Very Intensive IFR
Visi :
Ceiling :
>= 8 km
>= 3000ft
5 to 8 km
1000 to 3000 ft
1500m to 5 km
500 to 1000 ft
800 to 1500m
200 to 500 ft
< 800m
< 200 ft
Symbols :   Thunderstorms  Fog  Heavy snow  Heavy precipitations  Wind > 20 kt
SIGMETs :     Misc.  Thunderstorms  Icing  Turbulence  Mountain Waves  Volcanic Ashes






- Airport Elevation : 36 ft
- IATA code : LTQ


LFAT - Le Touquet

CURRENT METAR :
  • 161800Z AUTO 23013G25KT 200V260 9999 -RA FEW014/// SCT027/// BKN043/// ///TCU 08/07 Q1003 BECMG BKN017

EXPIRED METARs :
  • 161730Z AUTO 24009KT 190V270 9000 -RA FEW017/// BKN049/// OVC062/// ///TCU 08/07 Q1003 BECMG 27017G27KT BKN017
  • 161700Z AUTO 25006KT 220V300 6000 RA FEW046/// BKN056/// OVC068/// ///TCU 08/07 Q1002 TEMPO 2000 RA OVC005 BKN025CB BECMG 27017G27KT
  • 161630Z AUTO 29012KT 250V320 6000 RA FEW010/// BKN042/// OVC052/// ///CB 08/06 Q1002 TEMPO 2000 RA BECMG 27017G27KT BKN017
  • 161600Z AUTO 30019G33KT 270V330 6000 -RA BKN010 BKN029 OVC036 08/07 Q1000 TEMPO 2000 RA OVC005 BKN025CB BECMG 20017G35KT
  • 161530Z AUTO 29018G31KT 260V320 3600 -RA BR SCT008/// SCT018/// BKN023/// ///CB 09/08 Q0999 TEMPO 2000 RA OVC005 BECMG 20017G35KT

TAF AMD TAF LFAT
Valid from the 16 at 15:00 until the 17 at 00:00 UTC


161534Z 1615/1624 20017G35KT 9999 OVC025
TEMPO 1615/1618 2000 RA OVC005 BKN025CB
FM161800 27017G27KT 9999 BKN017
ATIS : +33 3 21 06 62 84



MET'MAP, your aeronautical weather chart ! - Copyright ORBIFLY December 2007 - Disclaimer

ORBIFLY MET'MAP TEAM :

Programming & Development : Alexandra Zaïnal
Concept & original design : Baudouin d'Aumeries
Assistance for programming : Marc-Olivier Méhu
Technical & hardware support : Manuel Goepfert

Contact : metmap@orbifly.com




SOURCES & CREDITS :

   NOAA